Time;durP1;ratioP1;P1;durP2;ratioP2;P2;SDS_P1;SDS_P2;PMS_P1;PMS_P2;Temp;Humidity;BMP_temperature;BMP_pressure;BME280_temperature;BME280_humidity;BME280_pressure;Samples;Min_cycle;Max_cycle;Signal;HPM_P1;HPM_P2
2022/02/19 00:00:13;;;;;;;22.88;5.28;;;;;;;11.33;64.83;97447.44;4791862;29;122112;-83
2022/02/19 00:02:42;;;;;;;28.48;5.35;;;;;;;11.39;64.27;97464.53;4793744;29;121519;-81
2022/02/19 00:05:08;;;;;;;32.55;6.15;;;;;;;11.32;64.06;97470.66;4806984;29;122215;-83
2022/02/19 00:07:35;;;;;;;28.17;5.47;;;;;;;11.31;64.58;97475.38;4797336;29;120105;-82
2022/02/19 00:10:00;;;;;;;29.48;4.85;;;;;;;11.32;63.95;97481.63;4810968;29;120291;-83
2022/02/19 00:12:26;;;;;;;23.42;4.57;;;;;;;11.28;63.86;97475.72;4792688;29;120103;-83
2022/02/19 00:14:52;;;;;;;21.23;4.78;;;;;;;11.19;62.50;97446.00;4780813;29;123483;-85
2022/02/19 00:17:21;;;;;;;24.33;5.97;;;;;;;11.19;63.81;97482.41;4798761;29;119731;-83
2022/02/19 00:19:48;;;;;;;27.08;4.97;;;;;;;11.16;64.46;97464.28;4812588;29;121508;-84
2022/02/19 00:22:15;;;;;;;23.75;5.45;;;;;;;11.16;64.91;97463.53;4808034;29;124665;-83
2022/02/19 00:24:41;;;;;;;23.77;5.30;;;;;;;11.26;63.94;97467.28;4783231;29;121221;-83
2022/02/19 00:27:06;;;;;;;30.05;5.40;;;;;;;11.28;64.15;97470.25;4796070;29;121352;-83
2022/02/19 00:29:32;;;;;;;30.88;6.15;;;;;;;11.29;64.70;97468.97;4795252;29;120367;-83
2022/02/19 00:31:58;;;;;;;25.92;5.55;;;;;;;11.24;63.72;97442.41;4793421;29;122352;-82
2022/02/19 00:34:27;;;;;;;28.85;5.88;;;;;;;11.33;63.93;97455.66;4782772;29;124211;-82
2022/02/19 00:36:54;;;;;;;27.27;5.10;;;;;;;11.25;64.09;97446.63;4811219;29;120181;-83
2022/02/19 00:39:20;;;;;;;22.95;4.47;;;;;;;11.32;62.95;97448.69;4797734;29;120324;-81
2022/02/19 00:41:45;;;;;;;28.67;4.93;;;;;;;11.30;61.38;97462.22;4805458;29;120386;-82
2022/02/19 00:44:11;;;;;;;27.38;6.00;;;;;;;11.27;62.53;97436.59;4810160;29;120196;-82
2022/02/19 00:46:37;;;;;;;21.17;5.72;;;;;;;11.25;62.98;97455.59;4807914;29;122908;-83
2022/02/19 00:49:03;;;;;;;17.73;5.40;;;;;;;11.27;62.90;97420.13;4793803;29;119628;-83
2022/02/19 00:51:30;;;;;;;23.33;5.53;;;;;;;11.23;61.59;97416.25;4791234;29;122083;-83
2022/02/19 00:53:56;;;;;;;31.13;6.50;;;;;;;11.20;62.27;97442.72;4810828;29;119876;-82
2022/02/19 00:56:22;;;;;;;26.60;6.07;;;;;;;11.24;61.95;97420.47;4807736;29;119958;-81
2022/02/19 00:58:48;;;;;;;19.48;4.55;;;;;;;11.20;61.73;97420.78;4793893;29;121799;-83
2022/02/19 01:01:14;;;;;;;19.33;4.95;;;;;;;11.19;62.66;97427.53;4793317;29;123563;-82
2022/02/19 01:03:54;;;;;;;24.35;5.82;;;;;;;11.21;62.98;97429.75;4813943;29;119792;-81
2022/02/19 01:06:20;;;;;;;22.23;4.90;;;;;;;11.17;62.25;97443.06;4796397;29;122098;-82
2022/02/19 01:08:49;;;;;;;20.08;4.25;;;;;;;11.11;61.76;97434.94;4814916;29;123212;-83
2022/02/19 01:11:15;;;;;;;22.73;4.68;;;;;;;10.92;63.12;97404.22;4793122;29;122011;-83
2022/02/19 01:13:41;;;;;;;19.27;4.47;;;;;;;10.97;63.54;97437.00;4810205;29;120359;-82
2022/02/19 01:16:06;;;;;;;19.48;5.00;;;;;;;10.94;63.65;97468.22;4795229;29;120442;-83
2022/02/19 01:18:32;;;;;;;21.67;4.85;;;;;;;10.84;63.92;97460.94;4797355;29;119815;-84
2022/02/19 01:20:58;;;;;;;25.77;4.97;;;;;;;10.86;63.94;97478.34;4764007;29;123259;-82
2022/02/19 01:23:23;;;;;;;22.52;5.53;;;;;;;10.77;64.25;97495.22;4797684;29;119690;-83
2022/02/19 01:25:49;;;;;;;24.58;5.80;;;;;;;10.71;64.34;97480.91;4798649;29;122033;-83
2022/02/19 01:28:14;;;;;;;24.17;5.20;;;;;;;10.59;64.14;97474.13;4793793;29;122583;-83
2022/02/19 01:30:41;;;;;;;32.13;6.47;;;;;;;10.62;65.17;97511.44;4802213;29;120429;-82
2022/02/19 01:33:07;;;;;;;30.27;7.57;;;;;;;10.66;65.32;97534.56;4808414;29;120044;-84
2022/02/19 01:35:33;;;;;;;32.70;6.85;;;;;;;10.66;64.47;97520.84;4812228;29;119616;-82
2022/02/19 01:37:59;;;;;;;35.22;6.45;;;;;;;10.62;63.13;97560.78;4810883;29;121816;-83
2022/02/19 01:40:25;;;;;;;29.33;6.68;;;;;;;10.48;63.81;97565.50;4805984;29;121116;-84
2022/02/19 01:42:51;;;;;;;30.42;6.22;;;;;;;10.43;64.15;97582.78;4794964;29;120215;-83
2022/02/19 01:45:19;;;;;;;33.05;7.05;;;;;;;10.45;64.11;97575.53;4810015;29;120321;-84
2022/02/19 01:47:46;;;;;;;33.08;6.20;;;;;;;10.38;63.68;97617.22;4806249;29;122594;-83
2022/02/19 01:50:16;;;;;;;29.33;6.65;;;;;;;10.31;63.51;97615.09;4812069;29;120175;-83
2022/02/19 01:52:45;;;;;;;30.02;6.65;;;;;;;10.24;63.22;97610.25;4790413;29;123802;-84
2022/02/19 01:55:14;;;;;;;32.97;6.45;;;;;;;10.19;65.09;97654.84;4806353;29;120275;-83
2022/02/19 01:57:48;;;;;;;31.02;6.20;;;;;;;10.16;64.01;97675.78;4790909;29;122591;-85
2022/02/19 02:00:36;;;;;;;33.25;6.13;;;;;;;9.99;62.88;97694.47;4780277;29;123240;-87
2022/02/19 02:03:21;;;;;;;;;;;;;;;9.89;63.58;97728.19;4810941;29;119743;-78
2022/02/19 02:05:52;;;;;;;28.20;5.13;;;;;;;9.78;63.56;97761.91;4793063;29;121198;-83
2022/02/19 02:08:19;;;;;;;28.33;4.93;;;;;;;9.68;65.12;97760.75;4792435;29;123013;-89
2022/02/19 02:10:47;;;;;;;28.42;5.45;;;;;;;9.52;64.37;97770.66;4791673;29;121245;-86
2022/02/19 02:13:26;;;;;;;31.17;5.32;;;;;;;9.53;64.80;97804.97;4812555;29;120308;-85
2022/02/19 02:15:52;;;;;;;32.47;6.28;;;;;;;9.32;65.21;97798.44;4807332;29;120370;-86
2022/02/19 02:18:38;;;;;;;24.70;4.15;;;;;;;9.43;64.40;97851.03;4808118;29;122444;-82
2022/02/19 02:21:03;;;;;;;21.83;4.68;;;;;;;9.35;64.71;97861.06;4808271;29;120438;-86
2022/02/19 02:23:29;;;;;;;24.92;4.85;;;;;;;9.40;65.68;97886.88;4808249;29;121969;-84
2022/02/19 02:25:55;;;;;;;25.00;5.00;;;;;;;9.46;64.98;97901.25;4791994;29;121717;-86
2022/02/19 02:28:23;;;;;;;26.23;5.57;;;;;;;9.55;64.95;97920.09;4790151;29;122901;-85
2022/02/19 02:30:48;;;;;;;33.15;5.25;;;;;;;9.55;64.87;97925.56;4807629;29;120174;-88
2022/02/19 02:33:19;;;;;;;24.95;5.43;;;;;;;9.56;63.79;97951.69;4803197;29;120855;-87
2022/02/19 02:35:54;;;;;;;25.83;5.25;;;;;;;9.56;63.77;97984.53;4814771;29;125875;-85
2022/02/19 02:38:40;;;;;;;27.48;5.25;;;;;;;9.57;63.75;97996.22;4795729;29;120710;-85
2022/02/19 02:41:06;;;;;;;23.13;4.80;;;;;;;9.51;63.46;97985.31;4795571;29;122810;-88
2022/02/19 02:43:32;;;;;;;36.00;5.95;;;;;;;9.48;63.54;98030.09;4796929;29;120072;-83
2022/02/19 02:46:02;;;;;;;31.38;7.00;;;;;;;9.51;63.20;98061.91;4794395;29;120264;-84
2022/02/19 02:48:30;;;;;;;30.23;5.88;;;;;;;9.41;62.20;98075.13;4793404;29;123016;-84
2022/02/19 02:50:56;;;;;;;30.58;6.18;;;;;;;9.47;62.45;98108.69;4791368;29;120170;-84
2022/02/19 02:53:26;;;;;;;26.80;5.55;;;;;;;9.45;62.32;98121.38;4791232;29;119908;-83
2022/02/19 02:55:52;;;;;;;29.23;5.93;;;;;;;9.43;62.48;98143.75;4787924;29;124385;-83
2022/02/19 02:58:18;;;;;;;29.58;6.20;;;;;;;9.31;62.38;98130.63;4797998;29;121702;-83
2022/02/19 03:00:44;;;;;;;26.20;5.57;;;;;;;9.35;61.93;98148.28;4801686;29;123267;-84
2022/02/19 03:03:10;;;;;;;30.85;6.80;;;;;;;9.39;61.84;98189.03;4812470;29;121322;-83
2022/02/19 03:05:36;;;;;;;32.65;6.32;;;;;;;9.39;62.12;98187.06;4810411;29;120233;-85
2022/02/19 03:08:01;;;;;;;27.60;5.68;;;;;;;9.43;62.13;98214.16;4778502;29;121061;-83
2022/02/19 03:10:29;;;;;;;26.70;5.53;;;;;;;9.43;63.36;98230.56;4779441;29;119940;-84
2022/02/19 03:12:55;;;;;;;31.27;6.90;;;;;;;9.48;62.31;98246.25;4809418;29;121768;-84
2022/02/19 03:15:23;;;;;;;25.75;5.82;;;;;;;9.51;62.55;98256.94;4777840;29;122475;-84
2022/02/19 03:17:49;;;;;;;28.58;6.38;;;;;;;9.50;62.87;98279.31;4793589;29;120332;-84
2022/02/19 03:20:21;;;;;;;26.83;5.35;;;;;;;9.58;62.30;98285.00;4796221;29;121598;-84
2022/02/19 03:22:47;;;;;;;25.45;5.35;;;;;;;9.49;60.86;98288.78;4810982;29;120061;-83
2022/02/19 03:25:17;;;;;;;23.08;5.20;;;;;;;9.49;59.90;98327.09;4794211;29;119723;-83
2022/02/19 03:27:44;;;;;;;26.30;6.32;;;;;;;9.48;60.42;98345.50;4780455;29;122652;-83
2022/02/19 03:30:14;;;;;;;22.05;4.45;;;;;;;9.50;60.69;98343.00;4804945;29;121838;-83
2022/02/19 03:32:41;;;;;;;21.30;4.70;;;;;;;9.54;59.36;98378.31;4811885;29;119469;-83
2022/02/19 03:35:12;;;;;;;25.08;4.55;;;;;;;9.52;60.01;98389.00;4797797;29;119931;-83
2022/02/19 03:37:39;;;;;;;21.25;4.60;;;;;;;9.53;60.16;98385.78;4793114;29;122289;-84
2022/02/19 03:40:14;;;;;;;22.50;5.20;;;;;;;9.54;60.52;98411.91;4790118;29;121725;-83
2022/02/19 03:42:42;;;;;;;23.70;4.90;;;;;;;9.59;60.86;98412.38;4780611;29;119767;-84
2022/02/19 03:45:11;;;;;;;23.77;5.25;;;;;;;9.63;59.90;98429.31;4793434;29;121817;-83
2022/02/19 03:47:41;;;;;;;28.20;5.95;;;;;;;9.62;59.55;98446.97;4791718;29;120334;-83
2022/02/19 03:50:09;;;;;;;27.05;5.28;;;;;;;9.62;60.53;98449.69;4780364;29;119878;-82
2022/02/19 03:52:38;;;;;;;30.38;5.70;;;;;;;9.72;61.67;98462.66;4793420;29;119947;-83
2022/02/19 03:55:06;;;;;;;31.13;5.75;;;;;;;9.83;60.20;98475.59;4770980;29;122768;-83
2022/02/19 03:57:32;;;;;;;29.75;6.10;;;;;;;9.86;60.23;98491.03;4791496;29;119801;-83
2022/02/19 03:59:58;;;;;;;32.97;5.63;;;;;;;9.83;61.16;98490.03;4809058;29;120173;-83
2022/02/19 04:02:24;;;;;;;26.00;6.05;;;;;;;9.80;60.34;98520.38;4811537;29;120124;-83
2022/02/19 04:04:50;;;;;;;21.08;5.18;;;;;;;9.79;59.71;98516.91;4783238;29;122090;-83
2022/02/19 04:07:17;;;;;;;19.70;4.70;;;;;;;9.76;58.72;98534.34;4807508;29;123611;-85
2022/02/19 04:09:54;;;;;;;17.33;3.78;;;;;;;9.65;59.27;98539.78;4806784;29;120034;-83
2022/02/19 04:12:19;;;;;;;16.45;4.03;;;;;;;9.65;59.36;98575.34;4805755;29;121649;-82
2022/02/19 04:14:49;;;;;;;22.42;3.95;;;;;;;9.71;59.64;98573.41;4793677;29;124044;-83
2022/02/19 04:17:15;;;;;;;23.42;4.20;;;;;;;9.76;59.96;98589.09;4808733;29;120711;-84
2022/02/19 04:19:40;;;;;;;26.48;4.72;;;;;;;9.76;59.41;98602.78;4809900;29;120886;-83
2022/02/19 04:22:07;;;;;;;25.88;5.25;;;;;;;9.82;59.28;98624.69;4793497;29;119894;-83
2022/02/19 04:24:32;;;;;;;30.70;5.63;;;;;;;9.83;60.21;98634.38;4813649;29;120087;-82
2022/02/19 04:27:14;;;;;;;28.38;6.28;;;;;;;9.84;59.88;98657.78;4809115;29;122673;-82
2022/02/19 04:29:40;;;;;;;21.73;4.93;;;;;;;9.88;60.28;98702.09;4794239;29;120640;-82
2022/02/19 04:32:08;;;;;;;16.52;3.50;;;;;;;9.77;60.66;98729.44;4807826;29;120212;-84
2022/02/19 04:34:44;;;;;;;14.18;3.28;;;;;;;9.57;59.73;98718.66;4807960;29;120022;-83
2022/02/19 04:37:10;;;;;;;15.70;3.20;;;;;;;9.42;60.73;98754.38;4811653;29;119755;-84
2022/02/19 04:39:39;;;;;;;10.23;2.53;;;;;;;9.14;61.01;98724.88;4780697;29;122059;-84
2022/02/19 04:42:11;;;;;;;8.30;1.92;;;;;;;8.96;61.25;98749.84;4791563;29;123303;-83
2022/02/19 04:44:38;;;;;;;7.75;1.67;;;;;;;8.79;61.66;98729.84;4804591;29;119528;-85
2022/02/19 04:47:05;;;;;;;8.18;1.98;;;;;;;8.60;61.17;98754.03;4813512;29;119644;-83
2022/02/19 04:49:31;;;;;;;10.05;2.53;;;;;;;8.55;62.59;98762.94;4795992;29;120014;-83
2022/02/19 04:51:58;;;;;;;9.10;1.98;;;;;;;8.55;62.43;98768.41;4793977;29;122932;-84
2022/02/19 04:54:23;;;;;;;11.02;2.58;;;;;;;8.50;61.95;98767.09;4797102;29;123404;-85
2022/02/19 04:56:49;;;;;;;19.27;3.05;;;;;;;8.55;62.51;98801.94;4793402;29;121180;-86
2022/02/19 04:59:15;;;;;;;14.65;2.72;;;;;;;8.58;62.63;98806.44;4778930;29;122584;-83
2022/02/19 05:01:43;;;;;;;15.32;3.10;;;;;;;8.64;62.16;98836.53;4800930;29;123199;-84
2022/02/19 05:04:12;;;;;;;18.60;3.25;;;;;;;8.67;62.70;98840.28;4808996;29;120962;-83
2022/02/19 05:07:01;;;;;;;21.33;3.70;;;;;;;8.79;62.04;98866.53;4805463;29;119803;-83
2022/02/19 05:09:26;;;;;;;16.30;3.38;;;;;;;8.85;61.82;98875.53;4798483;29;121977;-84
2022/02/19 05:12:18;;;;;;;20.17;3.65;;;;;;;8.85;61.49;98879.00;4806807;29;122122;-83
2022/02/19 05:14:45;;;;;;;17.73;3.67;;;;;;;8.91;61.48;98887.25;4783402;29;122864;-82
2022/02/19 05:17:21;;;;;;;22.08;3.40;;;;;;;8.95;62.14;98887.03;4800380;29;120019;-83
2022/02/19 05:19:51;;;;;;;22.33;4.10;;;;;;;8.92;62.21;98899.69;4802257;29;122256;-84
2022/02/19 05:22:17;;;;;;;22.17;4.38;;;;;;;9.00;62.87;98900.03;4811558;29;120523;-84
2022/02/19 05:24:47;;;;;;;23.90;4.40;;;;;;;8.96;62.75;98905.69;4807372;29;119851;-83
2022/02/19 05:27:18;;;;;;;20.05;3.83;;;;;;;9.05;62.82;98902.06;4810587;29;119597;-84
2022/02/19 05:29:43;;;;;;;23.10;4.22;;;;;;;9.19;62.71;98925.81;4812834;29;119892;-84
2022/02/19 05:32:12;;;;;;;26.52;4.00;;;;;;;9.19;62.03;98918.34;4798446;29;120093;-83
2022/02/19 05:34:42;;;;;;;18.52;3.70;;;;;;;9.24;62.43;98908.72;4794102;29;122516;-86
2022/02/19 05:37:09;;;;;;;16.70;3.78;;;;;;;9.30;64.29;98927.91;4796202;29;119544;-84
2022/02/19 05:39:42;;;;;;;16.73;4.15;;;;;;;9.33;62.73;98935.91;4812142;29;119760;-84
2022/02/19 05:42:11;;;;;;;20.58;3.83;;;;;;;9.36;62.59;98953.34;4780038;29;121279;-84
2022/02/19 05:44:37;;;;;;;16.23;3.65;;;;;;;9.39;61.94;98957.84;4816765;29;120139;-84
2022/02/19 05:47:06;;;;;;;21.30;4.63;;;;;;;9.46;61.38;98982.81;4795880;29;121785;-84
2022/02/19 05:49:36;;;;;;;20.70;3.92;;;;;;;9.52;62.44;98991.06;4815174;29;120477;-84
2022/02/19 05:52:10;;;;;;;25.20;4.03;;;;;;;9.44;61.62;98990.72;4802414;29;119576;-83
2022/02/19 05:54:39;;;;;;;20.98;4.25;;;;;;;9.53;61.25;99014.47;4795269;29;122763;-83
2022/02/19 05:57:31;;;;;;;24.75;4.35;;;;;;;9.49;61.14;99024.88;4792285;29;119634;-83
2022/02/19 06:00:00;;;;;;;18.88;4.00;;;;;;;9.61;61.98;99040.16;4795982;29;122340;-84
2022/02/19 06:02:26;;;;;;;28.92;4.70;;;;;;;9.60;60.58;99046.88;4812055;29;119878;-84
2022/02/19 06:04:51;;;;;;;24.10;4.63;;;;;;;9.62;60.65;99062.81;4783625;29;120405;-84
2022/02/19 06:07:17;;;;;;;24.17;4.20;;;;;;;9.54;61.28;99067.97;4796698;29;121867;-83
2022/02/19 06:09:42;;;;;;;19.10;3.95;;;;;;;9.57;60.58;99077.19;4810504;29;123175;-84
2022/02/19 06:12:08;;;;;;;21.92;4.22;;;;;;;9.54;59.98;99087.13;4811466;29;120212;-83
2022/02/19 06:14:52;;;;;;;17.40;3.67;;;;;;;9.52;61.00;99092.34;4799229;29;120175;-83
2022/02/19 06:17:23;;;;;;;22.83;4.38;;;;;;;9.46;61.44;99100.47;4813162;29;121258;-84
2022/02/19 06:19:49;;;;;;;22.25;4.13;;;;;;;9.55;61.57;99118.72;4797391;29;121951;-84
2022/02/19 06:22:17;;;;;;;22.10;4.20;;;;;;;9.58;61.29;99117.03;4795654;29;122566;-82
2022/02/19 06:24:43;;;;;;;22.08;4.13;;;;;;;9.57;60.57;99118.25;4809412;29;120856;-84
2022/02/19 06:27:09;;;;;;;21.80;4.78;;;;;;;9.59;60.86;99124.00;4810319;29;119574;-83
2022/02/19 06:29:53;;;;;;;24.48;4.63;;;;;;;9.64;60.12;99142.47;4795895;29;120444;-82
2022/02/19 06:32:25;;;;;;;25.67;4.85;;;;;;;9.68;60.71;99140.25;4795107;29;120004;-83
2022/02/19 06:34:52;;;;;;;23.05;4.25;;;;;;;9.70;60.50;99157.75;4781143;29;121756;-84
2022/02/19 06:37:23;;;;;;;29.67;5.53;;;;;;;9.78;60.53;99158.06;4811808;29;122533;-83
2022/02/19 06:39:49;;;;;;;31.48;5.22;;;;;;;9.92;62.23;99176.38;4812567;29;119841;-83
2022/02/19 06:42:15;;;;;;;29.63;5.88;;;;;;;10.05;62.41;99182.25;4794107;29;122633;-83
2022/02/19 06:44:54;;;;;;;27.35;4.90;;;;;;;10.11;61.03;99196.00;4780210;29;119617;-81
2022/02/19 06:47:22;;;;;;;28.08;5.22;;;;;;;10.05;60.37;99195.19;4805935;29;119841;-83
2022/02/19 06:49:48;;;;;;;24.25;4.60;;;;;;;10.15;60.33;99208.25;4779668;29;123201;-83
2022/02/19 06:52:13;;;;;;;29.98;5.35;;;;;;;10.21;61.59;99224.78;4809005;29;121955;-83
2022/02/19 06:54:39;;;;;;;26.65;5.13;;;;;;;10.31;60.98;99234.34;4796375;29;122936;-83
2022/02/19 06:57:05;;;;;;;25.13;4.63;;;;;;;10.34;60.53;99236.13;4810469;29;119955;-83
2022/02/19 06:59:31;;;;;;;27.15;4.80;;;;;;;10.31;61.38;99248.06;4809151;29;119761;-82
2022/02/19 07:01:57;;;;;;;25.25;4.85;;;;;;;10.35;62.21;99247.84;4793394;29;122692;-83
2022/02/19 07:04:25;;;;;;;28.50;5.60;;;;;;;10.39;60.06;99265.56;4817666;29;120019;-83
2022/02/19 07:06:53;;;;;;;24.95;5.15;;;;;;;10.35;60.57;99265.03;4809166;29;121208;-83
2022/02/19 07:09:19;;;;;;;28.08;5.28;;;;;;;10.41;60.84;99276.06;4793729;29;119774;-82
2022/02/19 07:11:46;;;;;;;26.20;4.93;;;;;;;10.39;60.85;99287.50;4809226;29;120907;-82
2022/02/19 07:14:13;;;;;;;25.23;5.00;;;;;;;10.45;61.14;99290.31;4793984;29;122859;-83
2022/02/19 07:16:38;;;;;;;23.63;5.40;;;;;;;10.46;59.25;99305.53;4794543;29;119846;-83
2022/02/19 07:19:06;;;;;;;28.25;5.13;;;;;;;10.41;59.49;99304.25;4784116;29;119796;-83
2022/02/19 07:21:32;;;;;;;27.02;5.40;;;;;;;10.52;59.34;99325.53;4813446;29;120777;-84
2022/02/19 07:23:58;;;;;;;26.80;5.10;;;;;;;10.59;61.04;99318.84;4787657;29;119585;-83
2022/02/19 07:26:28;;;;;;;26.23;4.63;;;;;;;10.68;61.78;99335.91;4795764;29;119720;-83
2022/02/19 07:28:57;;;;;;;24.75;4.78;;;;;;;10.73;59.44;99353.66;4797306;29;121401;-84
2022/02/19 07:31:26;;;;;;;22.55;4.85;;;;;;;10.60;59.12;99334.81;4777163;29;119637;-83
2022/02/19 07:33:51;;;;;;;20.95;4.22;;;;;;;10.58;58.82;99353.75;4779716;29;120120;-82
2022/02/19 07:36:25;;;;;;;27.08;4.68;;;;;;;10.57;59.13;99381.66;4794407;29;119941;-84
2022/02/19 07:38:51;;;;;;;18.00;4.43;;;;;;;10.61;59.84;99382.19;4765383;29;119931;-84
2022/02/19 07:41:17;;;;;;;26.20;4.35;;;;;;;10.64;59.13;99394.94;4808834;29;119725;-84
2022/02/19 07:44:06;;;;;;;21.67;3.60;;;;;;;10.66;60.27;99406.19;4800935;29;121131;-83
2022/02/19 07:46:42;;;;;;;20.13;4.10;;;;;;;10.58;59.42;99396.88;4810905;29;121904;-83
2022/02/19 07:58:22;;;;;;;22.35;3.95;;;;;;;10.75;58.70;99449.91;4812462;29;122193;-83
2022/02/19 08:00:58;;;;;;;18.80;3.95;;;;;;;10.64;58.59;99458.75;4792822;29;121869;-82
2022/02/19 08:03:29;;;;;;;14.77;3.63;;;;;;;10.67;58.66;99459.81;4810110;29;120431;-82
2022/02/19 08:06:01;;;;;;;18.88;3.78;;;;;;;10.62;59.68;99469.44;4797770;29;122921;-83
2022/02/19 08:08:28;;;;;;;20.17;4.03;;;;;;;10.66;58.21;99488.47;4809093;29;121722;-82
2022/02/19 08:10:56;;;;;;;21.83;3.72;;;;;;;10.53;60.50;99468.84;4795611;29;122985;-83
2022/02/19 08:13:23;;;;;;;20.35;3.90;;;;;;;10.75;58.79;99510.25;4805185;29;119629;-82
2022/02/19 08:15:50;;;;;;;18.40;3.65;;;;;;;10.76;59.95;99496.06;4793360;29;122382;-82
2022/02/19 08:18:16;;;;;;;18.38;3.90;;;;;;;10.81;58.37;99519.31;4810220;29;122286;-83
2022/02/19 08:20:44;;;;;;;22.20;3.83;;;;;;;10.85;58.17;99539.03;4809803;29;119792;-83
2022/02/19 08:23:12;;;;;;;20.83;4.22;;;;;;;10.85;59.37;99547.28;4808078;29;119992;-83
2022/02/19 08:25:38;;;;;;;23.13;3.90;;;;;;;10.87;58.66;99555.78;4790193;29;122332;-82
2022/02/19 08:28:05;;;;;;;17.65;4.50;;;;;;;10.88;57.30;99590.22;4799802;29;119779;-82
2022/02/19 08:30:36;;;;;;;18.23;3.78;;;;;;;10.86;58.47;99597.41;4812099;29;120329;-82
2022/02/19 08:33:03;;;;;;;18.08;2.60;;;;;;;10.83;58.24;99571.69;4808635;29;121126;-82
2022/02/19 08:35:29;;;;;;;13.52;2.28;;;;;;;10.75;57.36;99585.06;4812457;29;121956;-82
2022/02/19 08:37:55;;;;;;;14.02;2.60;;;;;;;10.65;57.84;99591.16;4810570;29;121250;-83
2022/02/19 08:40:21;;;;;;;12.82;2.38;;;;;;;10.64;57.94;99597.84;4812320;29;119787;-83
2022/02/19 08:42:47;;;;;;;14.68;2.88;;;;;;;10.71;58.33;99613.94;4793501;29;120695;-82
2022/02/19 08:45:15;;;;;;;18.13;3.13;;;;;;;10.63;57.89;99601.81;4817667;29;122749;-83
2022/02/19 08:47:41;;;;;;;19.05;3.65;;;;;;;10.72;58.19;99620.91;4798693;29;120174;-83
2022/02/19 08:50:11;;;;;;;25.98;4.93;;;;;;;10.77;58.05;99612.78;4802321;29;122511;-83
2022/02/19 08:52:45;;;;;;;17.95;4.28;;;;;;;10.81;58.72;99625.53;4812368;29;119819;-83
2022/02/19 08:55:15;;;;;;;22.95;4.13;;;;;;;10.94;59.14;99628.72;4811243;29;120015;-83
2022/02/19 08:57:41;;;;;;;28.02;5.35;;;;;;;11.00;58.70;99644.00;4792817;29;123535;-82
2022/02/19 09:00:10;;;;;;;30.30;4.97;;;;;;;11.12;58.53;99655.13;4812067;29;120230;-81
2022/02/19 09:02:36;;;;;;;22.73;4.80;;;;;;;11.18;61.38;99645.00;4798238;29;120617;-81
2022/02/19 09:05:03;;;;;;;20.48;3.83;;;;;;;11.34;62.19;99663.66;4807731;29;120416;-81
2022/02/19 09:07:28;;;;;;;24.95;4.57;;;;;;;11.51;61.00;99677.59;4798118;29;121047;-80
2022/02/19 09:09:54;;;;;;;22.63;4.00;;;;;;;11.59;60.97;99665.75;4795240;29;122624;-81
2022/02/19 09:12:21;;;;;;;25.63;4.85;;;;;;;11.72;60.73;99683.84;4814580;29;121080;-81
2022/02/19 09:14:47;;;;;;;21.25;3.85;;;;;;;11.79;60.81;99680.72;4804558;29;120929;-81
2022/02/19 09:17:12;;;;;;;19.23;3.95;;;;;;;11.81;61.07;99691.97;4811669;29;120526;-81
2022/02/19 09:19:38;;;;;;;26.08;4.63;;;;;;;11.89;58.81;99696.59;4804523;29;119609;-81
2022/02/19 09:22:05;;;;;;;17.13;3.63;;;;;;;11.89;58.54;99685.59;4811586;29;119644;-81
2022/02/19 09:24:30;;;;;;;19.95;3.75;;;;;;;11.92;58.83;99697.59;4794473;29;120408;-81
2022/02/19 09:26:56;;;;;;;15.25;3.50;;;;;;;11.96;59.24;99712.63;4799576;29;122063;-81
2022/02/19 09:29:23;;;;;;;15.45;3.15;;;;;;;11.98;58.55;99723.16;4782325;29;122434;-82
2022/02/19 09:31:49;;;;;;;14.68;2.55;;;;;;;12.01;59.04;99732.41;4796224;29;120776;-81
2022/02/19 09:34:15;;;;;;;13.48;2.90;;;;;;;11.99;57.41;99716.41;4800071;29;120057;-81
2022/02/19 09:36:40;;;;;;;12.05;2.28;;;;;;;12.04;57.99;99723.97;4796682;29;124036;-81
2022/02/19 09:39:09;;;;;;;13.93;2.75;;;;;;;12.01;56.51;99724.16;4796251;29;119796;-81
2022/02/19 09:41:35;;;;;;;15.95;2.17;;;;;;;12.02;55.83;99737.44;4809670;29;124417;-81
2022/02/19 09:44:02;;;;;;;13.50;2.38;;;;;;;11.83;55.98;99733.44;4783736;29;122659;-82
2022/02/19 09:46:30;;;;;;;10.18;1.90;;;;;;;11.85;58.30;99745.50;4810706;29;119978;-81
2022/02/19 09:48:57;;;;;;;9.55;2.28;;;;;;;11.88;57.96;99744.53;4794860;29;121645;-82
2022/02/19 09:51:23;;;;;;;7.55;1.90;;;;;;;11.94;57.14;99750.09;4797435;29;125155;-81
2022/02/19 09:53:49;;;;;;;7.40;1.92;;;;;;;11.95;56.29;99770.84;4814037;29;120130;-81
2022/02/19 09:56:15;;;;;;;8.48;1.80;;;;;;;11.93;54.83;99763.06;4801317;29;119956;-81
2022/02/19 09:58:45;;;;;;;9.57;1.92;;;;;;;11.89;54.26;99770.78;4797915;29;119944;-81
2022/02/19 10:01:39;;;;;;;10.73;2.20;;;;;;;11.84;57.61;99781.69;4796301;29;122492;-79
2022/02/19 10:04:06;;;;;;;6.82;1.60;;;;;;;11.89;57.63;99776.28;4793309;29;123325;-81
2022/02/19 10:06:34;;;;;;;6.53;1.65;;;;;;;11.94;57.43;99783.81;4794664;29;119823;-81
2022/02/19 10:09:19;;;;;;;6.90;1.88;;;;;;;12.00;57.37;99789.38;4797776;29;122728;-81
2022/02/19 10:11:46;;;;;;;7.50;1.70;;;;;;;12.05;58.61;99798.91;4796488;29;120970;-81
2022/02/19 10:14:25;;;;;;;6.53;1.65;;;;;;;12.10;58.90;99801.75;4794748;29;120290;-81
2022/02/19 10:17:17;;;;;;;6.18;1.90;;;;;;;12.16;56.91;99794.31;4814574;29;119807;-82
2022/02/19 10:19:48;;;;;;;10.10;1.73;;;;;;;12.13;56.88;99800.78;4810946;29;120106;-81
2022/02/19 10:22:15;;;;;;;10.55;2.33;;;;;;;12.23;57.05;99821.38;4808597;29;119636;-81
2022/02/19 10:24:49;;;;;;;11.35;2.53;;;;;;;12.28;57.66;99795.94;4811075;29;120949;-81
2022/02/19 10:27:15;;;;;;;8.52;1.88;;;;;;;12.35;57.94;99819.53;4780930;29;119739;-81
2022/02/19 10:29:53;;;;;;;8.18;2.00;;;;;;;12.42;58.54;99821.88;4763437;29;122786;-81
2022/02/19 10:32:26;;;;;;;13.75;2.45;;;;;;;12.47;56.49;99814.91;4784575;29;122624;-81
2022/02/19 10:35:01;;;;;;;11.05;2.50;;;;;;;12.56;55.71;99834.78;4796640;29;119666;-82
2022/02/19 10:37:31;;;;;;;12.05;2.50;;;;;;;12.63;56.86;99832.84;4811781;29;122427;-81
2022/02/19 10:39:58;;;;;;;12.73;2.22;;;;;;;12.69;58.78;99834.41;4796966;29;120559;-81
2022/02/19 10:42:32;;;;;;;7.68;2.00;;;;;;;12.75;57.51;99832.44;4793129;29;121619;-82
2022/02/19 10:45:05;;;;;;;9.65;1.83;;;;;;;12.74;57.38;99847.44;4794298;29;120275;-82
2022/02/19 10:47:30;;;;;;;7.82;1.83;;;;;;;12.72;57.19;99847.19;4795889;29;120097;-82
2022/02/19 10:50:07;;;;;;;10.30;1.95;;;;;;;12.70;56.82;99852.41;4810091;29;120620;-83
2022/02/19 10:52:34;;;;;;;10.60;2.10;;;;;;;12.55;56.97;99843.50;4809107;29;120326;-82
2022/02/19 10:55:14;;;;;;;6.63;1.85;;;;;;;12.51;58.29;99842.94;4810100;29;120198;-83
2022/02/19 10:57:43;;;;;;;10.65;2.53;;;;;;;12.56;56.17;99864.28;4787605;29;121996;-82
2022/02/19 11:00:20;;;;;;;13.30;2.40;;;;;;;12.44;55.79;99857.13;4791460;29;122883;-82
2022/02/19 11:02:47;;;;;;;17.15;2.47;;;;;;;12.45;57.09;99862.16;4800092;29;120265;-82
2022/02/19 11:05:13;;;;;;;13.98;2.58;;;;;;;12.51;59.03;99871.22;4795864;29;120214;-82
2022/02/19 11:07:41;;;;;;;13.85;2.47;;;;;;;12.67;57.79;99871.88;4795590;29;120431;-82
2022/02/19 11:10:21;;;;;;;11.40;2.33;;;;;;;12.74;57.70;99880.47;4776562;29;122432;-82
2022/02/19 11:12:47;;;;;;;11.55;2.30;;;;;;;12.59;56.58;99897.09;4788183;29;121471;-83
2022/02/19 11:15:16;;;;;;;7.10;2.42;;;;;;;12.47;55.57;99880.91;4807068;29;120390;-84
2022/02/19 11:17:45;;;;;;;9.73;1.90;;;;;;;12.17;55.97;99886.56;4810719;29;121514;-83
2022/02/19 11:20:14;;;;;;;8.88;1.83;;;;;;;12.01;55.96;99889.06;4792189;29;122050;-79
2022/02/19 11:22:40;;;;;;;12.05;2.40;;;;;;;11.83;56.87;99903.81;4777813;29;120584;-82
2022/02/19 11:25:09;;;;;;;13.02;2.83;;;;;;;11.74;57.74;99909.38;4797787;29;119756;-82
2022/02/19 11:27:48;;;;;;;16.95;2.95;;;;;;;11.57;58.76;99892.66;4799609;29;121147;-82
2022/02/19 11:30:14;;;;;;;12.07;2.55;;;;;;;11.56;58.90;99908.38;4789989;29;121541;-83
2022/02/19 11:32:42;;;;;;;12.88;2.55;;;;;;;11.57;59.00;99909.13;4805188;29;123427;-82
2022/02/19 11:35:09;;;;;;;14.80;2.60;;;;;;;11.53;58.53;99900.31;4791982;29;119491;-82
2022/02/19 11:37:45;;;;;;;13.20;2.80;;;;;;;11.55;58.24;99908.84;4791330;29;121410;-83